Station: Newman Airport

  Atmospheric Gas Attenuation - ITU Rec 676-11   --------------- db/100km ---------------
Date Time Temp RH % AH g/m3 Dew Point Wind Direction Speed kph Gust kph Barometer mB Rainfall Since 9am 24GHz 47GHz 76GHz 122GHz 134GHz 241GHz
07 05:30 7.8 71 5.8 2.9 9 11 1019.5 0 13.8 23.3 31.6 82.5 68.7 233.5
07 05:20 7.6 72 5.8 2.9 9 9 1020.7 0 13.9 23.4 31.8 82.8 68.9 234.3
07 05:10 7.3 71 5.61 2.4 9 11 1020.6 0 13.5 23.2 31.1 81.1 66.7 226.6
07 05:00 7.1 72 5.62 2.4 9 11 1019.2 0 13.5 23.2 31.2 81.3 67.0 227.3
07 04:50 6.6 69 5.21 1.3 9 9 1020.5 0 12.6 22.7 29.8 77.7 62.2 210.4
07 04:40 6.8 70 5.36 1.7 9 9 1020.4 0 12.9 22.9 30.4 79.0 63.9 216.6
07 04:30 6.6 70 5.29 1.5 7 9 1019 0 12.8 22.8 30.1 78.4 63.1 213.7
07 04:20 6.7 70 5.32 1.6 7 7 1020.2 0 12.9 22.8 30.2 78.7 63.5 215.0
07 04:10 6.9 69 5.31 1.6 7 9 1020.3 0 12.8 22.8 30.1 78.4 63.2 214.1
07 04:00 7 68 5.27 1.5 7 9 1019 0 12.7 22.6 29.9 77.8 62.5 211.8
07 03:40 7.5 69 5.53 2.2 7 9 1020.2 0 13.3 23.0 30.7 80.1 65.5 222.3
07 03:10 7.2 65 5.1 1.1 7 7 1020 0 12.4 22.4 29.2 75.9 60.3 203.9
07 03:00 7.5 66 5.29 1.6 2 7 1018.7 0 12.8 22.5 29.8 77.5 62.4 211.3
07 02:50 7.8 64 5.23 1.4 0 0 1019.9 0 12.6 22.4 29.5 76.7 61.5 208.1
07 02:40 7.7 64 5.19 1.3 0 0 1019.9 0 12.5 22.4 29.3 76.4 61.0 206.5
07 02:30 7.9 61 5.01 0.9 0 0 1018.4 0 12.2 22.0 28.5 74.2 58.5 197.9
07 02:20 8.5 62 5.3 1.6 0 0 1019.9 0 12.8 22.4 29.5 76.7 61.8 209.3
07 02:10 9 61 5.38 1.9 0 0 1019.8 0 12.9 22.4 29.6 77.0 62.4 211.5
07 02:00 9.5 62 5.65 2.6 0 6 1018.5 0 13.5 22.6 30.4 79.1 65.3 221.7
07 01:50 9.7 63 5.81 3 4 6 1019.9 0 13.8 22.8 31.0 80.7 67.2 228.5
07 01:30 9.8 61 5.66 2.6 9 11 1018.5 0 13.5 22.5 30.3 79.0 65.2 221.4
07 01:20 10.2 61 5.81 3 9 11 1019.8 0 13.8 22.7 30.8 80.2 66.8 227.1
07 01:10 9.9 60 5.6 2.5 9 9 1019.7 0 13.3 22.5 30.1 78.4 64.4 218.7
07 01:00 10.3 58 5.56 2.4 7 9 1018.3 0 13.2 22.3 29.7 77.4 63.5 215.6
07 00:50 10.5 59 5.72 2.8 7 7 1019.8 0 13.6 22.5 30.3 79.0 65.4 222.3
07 00:40 10.6 58 5.66 2.7 6 7 1019.8 0 13.4 22.4 30.1 78.3 64.6 219.4
07 00:30 10.9 58 5.77 3 7 9 1018.5 0 13.7 22.4 30.3 79.0 65.6 223.1
07 00:20 11.1 58 5.84 3.2 7 9 1020 0 13.8 22.5 30.5 79.6 66.4 225.9
07 00:10 11.1 57 5.74 2.9 9 11 1020 0 13.6 22.4 30.2 78.6 65.2 221.5
07 00:00 11.2 57 5.78 3 9 11 1018.7 0 13.7 22.4 30.2 78.8 65.5 222.7
06 23:50 10.7 56 5.5 2.3 9 9 1020 0 13.1 22.1 29.4 76.6 62.5 212.3
06 23:40 10.8 56 5.54 2.4 7 9 1020 0 13.2 22.2 29.5 76.9 62.9 213.7
06 23:30 10.9 55 5.47 2.2 7 7 1018.7 0 13.0 22.0 29.2 76.0 61.9 210.2
06 23:20 11.1 55 5.54 2.4 6 7 1020 0 13.2 22.1 29.4 76.6 62.7 212.9
06 23:10 11.8 53 5.58 2.5 7 9 1020.1 0 13.2 22.0 29.3 76.4 62.6 212.8
06 23:00 12.2 53 5.72 2.9 9 11 1018.8 0 13.5 22.1 29.6 77.2 64.0 217.4
06 22:50 12.2 52 5.61 2.6 7 9 1020.2 0 13.3 21.9 29.3 76.3 62.7 213.0
06 22:40 12.5 52 5.72 2.9 7 9 1020.3 0 13.5 22.0 29.6 77.1 63.8 216.9
06 22:30 12.6 51 5.64 2.7 7 11 1019 0 13.3 21.8 29.2 76.1 62.7 213.0
06 22:20 12.8 50 5.6 2.6 7 9 1020.2 0 13.2 21.8 29.0 75.6 62.1 211.0
06 22:10 13 49 5.56 2.5 7 7 1020.2 0 13.2 21.7 28.8 75.0 61.5 208.8
06 22:00 13.1 48 5.48 2.4 6 9 1018.9 0 13.0 21.5 28.5 74.1 60.4 205.0
06 21:50 13.3 47 5.43 2.2 7 7 1020.1 0 12.9 21.4 28.3 73.5 59.7 202.6
06 21:40 13.7 46 5.45 2.3 7 9 1020.1 0 12.9 21.3 28.2 73.3 59.6 202.5
06 21:30 14 45 5.43 2.3 7 9 1018.7 0 12.8 21.2 28.0 72.8 59.1 200.7
06 21:20 14.3 45 5.53 2.5 7 9 1020 0 13.0 21.3 28.3 73.5 60.1 204.3
06 21:10 14.5 44 5.47 2.4 13 15 1020 0 12.9 21.2 28.0 72.8 59.3 201.3
06 21:00 14.2 43 5.25 1.8 11 13 1018.5 0 12.5 20.9 27.3 70.9 56.9 192.8
06 20:50 14 42 5.07 1.3 9 11 1019.8 0 12.1 20.7 26.7 69.5 55.0 186.2
06 20:40 14.3 41 5.04 1.2 7 9 1019.6 0 12.0 20.6 26.5 68.9 54.4 184.2
06 20:30 14.9 40 5.1 1.4 7 9 1018.1 0 12.1 20.5 26.5 68.8 54.6 185.1
06 20:20 15.2 40 5.19 1.7 7 9 1019.3 0 12.3 20.6 26.8 69.5 55.5 188.2
06 20:10 15.3 39 5.09 1.4 9 11 1019.2 0 12.1 20.4 26.4 68.5 54.3 183.9
06 20:00 15.5 38 5.02 1.3 9 11 1017.9 0 11.9 20.3 26.0 67.6 53.3 180.5
06 19:50 16 37 5.04 1.3 9 11 1019.2 0 12.0 20.2 26.0 67.5 53.3 180.4
06 19:40 16.4 36 5.02 1.3 7 9 1019.1 0 11.9 20.1 25.8 67.0 52.8 178.7
06 19:30 16.8 35 5 1.3 9 13 1017.6 0 11.8 19.9 25.5 66.3 52.2 176.8
06 19:20 17.2 35 5.13 1.6 9 13 1018.9 0 12.1 20.1 25.9 67.3 53.5 181.2
06 19:10 17.5 34 5.07 1.5 9 13 1018.7 0 12.0 19.9 25.6 66.5 52.6 178.2
06 19:00 17.7 33 4.98 1.2 11 15 1017.3 0 11.8 19.7 25.2 65.4 51.4 174.1
06 18:50 17.9 33 5.04 1.4 11 13 1018.5 0 11.9 19.8 25.4 65.9 52.0 176.2
06 18:40 18.2 32 4.97 1.3 13 17 1018.3 0 11.7 19.6 25.0 65.0 51.1 172.8
06 18:30 18.4 32 5.03 1.4 15 20 1016.8 0 11.9 19.6 25.1 65.3 51.5 174.5
06 18:20 18.7 31 4.96 1.2 17 20 1018.1 0 11.7 19.5 24.9 64.5 50.6 171.4
06 18:10 18.9 30 4.86 1 15 17 1017.9 0 11.5 19.3 24.5 63.5 49.4 167.2
06 18:00 19.2 30 4.95 1.2 17 24 1016.4 0 11.7 19.3 24.6 63.9 50.1 169.7
06 17:50 19.4 29 4.84 0.9 13 20 1017.8 0 11.4 19.2 24.3 62.9 48.9 165.4
06 17:40 19.7 29 4.92 1.2 17 20 1017.7 0 11.6 19.2 24.4 63.4 49.6 167.8
06 17:30 20.1 28 4.87 1 19 26 1016.2 0 11.5 19.0 24.1 62.5 48.7 164.9
06 17:20 20.3 27 4.75 0.7 20 24 1017.6 0 11.2 18.9 23.7 61.5 47.4 160.3
06 17:10 20.6 27 4.83 1 19 24 1017.6 0 11.4 18.9 23.9 61.9 48.1 162.7
06 17:00 20.8 26 4.71 0.6 19 26 1016.2 0 11.1 18.7 23.4 60.7 46.7 157.7
06 16:50 20.9 26 4.73 0.7 13 15 1017.3 0 11.2 18.7 23.5 60.8 46.9 158.4
06 16:40 21 26 4.76 0.8 15 19 1017.3 0 11.2 18.8 23.5 61.0 47.1 159.3
06 16:30 21.3 25 4.66 0.5 11 19 1015.9 0 11.0 18.5 23.1 59.9 45.8 154.9
06 16:20 21.1 25 4.61 0.3 17 20 1017.2 0 10.9 18.5 23.0 59.7 45.5 153.6
06 16:10 21.5 24 4.53 0.1 17 28 1017.2 0 10.7 18.4 22.7 58.7 44.5 150.0
06 16:00 21.5 24 4.53 0.1 20 30 1015.8 0 10.7 18.3 22.6 58.6 44.4 149.8
06 15:50 21.3 24 4.47 -0.1 15 19 1017.1 0 10.6 18.3 22.5 58.4 43.9 148.2
06 15:40 21.2 25 4.63 0.4 13 19 1017.1 0 10.9 18.6 23.1 59.8 45.6 154.1
06 15:30 21.5 24 4.53 0.1 13 24 1015.8 0 10.7 18.3 22.6 58.6 44.4 149.8
06 15:20 21.5 24 4.53 0.1 13 19 1017.1 0 10.7 18.4 22.7 58.7 44.5 150.0
06 15:10 21.5 25 4.71 0.7 17 19 1017.1 0 11.1 18.6 23.2 60.2 46.3 156.5
06 15:00 21.2 25 4.63 0.4 17 28 1015.9 0 10.9 18.5 23.0 59.7 45.6 154.0
06 14:50 21.5 25 4.71 0.7 19 28 1017.2 0 11.1 18.6 23.2 60.2 46.3 156.5
06 14:40 21.5 25 4.71 0.7 13 17 1017.3 0 11.1 18.6 23.2 60.2 46.3 156.5
06 14:30 21.7 25 4.77 0.8 17 26 1015.9 0 11.2 18.6 23.3 60.5 46.8 158.1
06 14:20 20.7 26 4.68 0.5 17 24 1017.3 0 11.1 18.7 23.4 60.5 46.4 156.9
06 14:10 21.5 26 4.9 1.2 22 26 1017.3 0 11.5 18.8 23.8 61.8 48.3 163.4
06 14:00 20.9 27 4.92 1.2 20 30 1016.1 0 11.6 18.9 24.0 62.3 48.8 165.2
06 13:50 20.6 27 4.83 1 17 20 1017.6 0 11.4 18.9 23.9 61.9 48.1 162.7
06 13:40 20.6 27 4.83 1 24 30 1017.6 0 11.4 18.9 23.9 61.9 48.1 162.7
06 13:30 20.5 28 4.98 1.4 17 24 1016.3 0 11.7 19.1 24.3 63.2 49.7 168.2
06 13:20 20.3 29 5.1 1.7 17 20 1017.8 0 11.9 19.4 24.8 64.5 51.1 173.3
06 13:10 20 29 5.01 1.4 20 26 1017.8 0 11.8 19.3 24.6 63.9 50.3 170.6
06 13:00 19.9 29 4.98 1.4 19 35 1016.5 0 11.7 19.2 24.5 63.6 50.0 169.5
06 12:50 20.4 28 4.95 1.3 20 26 1018 0 11.6 19.1 24.3 63.1 49.5 167.6
06 12:40 19.4 30 5 1.4 20 24 1018.2 0 11.8 19.4 24.8 64.3 50.6 171.5
06 12:30 19.5 29 4.87 1 20 33 1017 0 11.5 19.2 24.3 63.0 49.1 166.2
06 12:20 19.3 30 4.98 1.3 20 24 1018.5 0 11.7 19.4 24.8 64.2 50.5 171.0

Last Refresh: 07-Aug-2020 07:13:20

Most of the information presented on this site is sourced from the Bureau of Meteorology.  Copyright in all material sourced from the Bureau of Meteorology resides with the Commonwealth of Australia.